Time;durP1;ratioP1;P1;durP2;ratioP2;P2;SDS_P1;SDS_P2;PMS_P1;PMS_P2;Temp;Humidity;BMP_temperature;BMP_pressure;BME280_temperature;BME280_humidity;BME280_pressure;Samples;Min_cycle;Max_cycle;Signal;HPM_P1;HPM_P2
2022/04/14 00:01:50;;;;;;;1.77;0.63;;;22.10;50.70;;;;;;5064624;28;20049;-52
2022/04/14 00:04:17;;;;;;;2.75;1.05;;;22.00;50.70;;;;;;5032983;28;20052;-55
2022/04/14 00:06:44;;;;;;;2.35;0.70;;;22.00;50.70;;;;;;5063113;28;20568;-51
2022/04/14 00:09:11;;;;;;;1.67;0.40;;;22.00;50.90;;;;;;5067453;28;20048;-52
2022/04/14 00:11:39;;;;;;;2.38;0.80;;;22.00;50.80;;;;;;5065729;28;20051;-55
2022/04/14 00:14:07;;;;;;;2.20;0.90;;;22.00;50.80;;;;;;5068788;28;20051;-57
2022/04/14 00:16:35;;;;;;;3.53;0.80;;;22.00;50.90;;;;;;5062040;28;20036;-56
2022/04/14 00:19:02;;;;;;;0.95;0.80;;;21.90;50.80;;;;;;5064348;28;20068;-54
2022/04/14 00:21:29;;;;;;;4.05;1.05;;;21.90;50.90;;;;;;5065900;28;20420;-53
2022/04/14 00:23:56;;;;;;;3.60;0.55;;;21.80;50.90;;;;;;5050549;28;20052;-54
2022/04/14 00:26:23;;;;;;;2.58;0.70;;;21.80;51.10;;;;;;5069048;28;20047;-53
2022/04/14 00:28:50;;;;;;;2.53;1.58;;;21.80;51.20;;;;;;5069214;28;20568;-56
2022/04/14 00:31:18;;;;;;;2.15;0.65;;;21.80;51.30;;;;;;5067420;28;20583;-53
2022/04/14 00:33:46;;;;;;;2.38;0.65;;;21.70;51.40;;;;;;5066397;28;20515;-54
2022/04/14 00:36:13;;;;;;;1.40;0.75;;;21.70;51.50;;;;;;5068610;28;20068;-54
2022/04/14 00:38:40;;;;;;;4.05;0.65;;;21.70;51.60;;;;;;5068420;28;20049;-55
2022/04/14 00:41:07;;;;;;;3.05;1.05;;;21.70;51.70;;;;;;5070094;28;20037;-55
2022/04/14 00:43:36;;;;;;;1.63;0.82;;;21.60;51.70;;;;;;5067834;28;20562;-54
2022/04/14 00:46:04;;;;;;;2.38;0.68;;;21.60;51.80;;;;;;5067737;28;20437;-55
2022/04/14 00:48:32;;;;;;;3.50;1.27;;;21.60;51.80;;;;;;5067829;28;20043;-52
2022/04/14 00:51:00;;;;;;;2.90;0.60;;;21.60;51.90;;;;;;5066176;28;20025;-55
2022/04/14 00:53:27;;;;;;;3.08;0.38;;;21.50;51.80;;;;;;5068695;28;20041;-54
2022/04/14 00:55:54;;;;;;;4.07;0.80;;;21.60;51.90;;;;;;5069221;28;20039;-57
2022/04/14 00:58:21;;;;;;;2.08;0.32;;;21.50;51.80;;;;;;5067204;28;20064;-55
2022/04/14 01:00:49;;;;;;;1.65;0.35;;;21.50;51.80;;;;;;5065391;28;20413;-55
2022/04/14 01:03:17;;;;;;;4.13;0.40;;;21.50;51.90;;;;;;5065854;28;20036;-56
2022/04/14 01:05:46;;;;;;;1.02;0.50;;;21.40;51.90;;;;;;5048630;28;20116;-56
2022/04/14 01:08:17;;;;;;;2.88;0.65;;;21.40;52.00;;;;;;5069090;28;20059;-54
2022/04/14 01:10:48;;;;;;;4.65;0.65;;;21.40;52.00;;;;;;5068268;28;20059;-53
2022/04/14 01:13:16;;;;;;;1.63;0.65;;;21.30;52.10;;;;;;5066914;28;20047;-53
2022/04/14 01:15:43;;;;;;;2.95;0.63;;;21.30;52.10;;;;;;5067645;28;20044;-53
2022/04/14 01:18:10;;;;;;;1.67;1.02;;;21.30;52.20;;;;;;5067672;28;20048;-55
2022/04/14 01:20:41;;;;;;;3.95;0.30;;;21.30;52.30;;;;;;5066813;28;20143;-54
2022/04/14 01:23:11;;;;;;;1.38;0.38;;;21.30;52.20;;;;;;5069295;28;20127;-56
2022/04/14 01:25:39;;;;;;;5.20;0.50;;;21.20;52.10;;;;;;5067053;28;20873;-56
2022/04/14 01:28:07;;;;;;;0.70;0.50;;;21.20;52.20;;;;;;5066859;28;20420;-56
2022/04/14 01:30:37;;;;;;;4.50;0.47;;;21.20;52.20;;;;;;5066992;28;20060;-54
2022/04/14 01:33:04;;;;;;;2.50;0.98;;;21.20;52.30;;;;;;5067279;28;20037;-55
2022/04/14 01:35:31;;;;;;;4.30;0.30;;;21.10;52.30;;;;;;5069678;28;20504;-55
2022/04/14 01:37:58;;;;;;;1.10;0.20;;;21.10;52.30;;;;;;5066322;28;20040;-53
2022/04/14 01:40:26;;;;;;;3.50;0.20;;;21.10;52.30;;;;;;5065499;28;20039;-55
2022/04/14 01:42:54;;;;;;;1.30;0.30;;;21.10;52.60;;;;;;5062383;28;20498;-56
2022/04/14 01:45:21;;;;;;;1.23;0.30;;;21.10;52.60;;;;;;5066765;28;20037;-55
2022/04/14 01:47:48;;;;;;;4.45;0.40;;;21.10;52.60;;;;;;5044956;28;20044;-55
2022/04/14 01:50:18;;;;;;;4.45;1.33;;;21.00;52.70;;;;;;5064071;28;20028;-56
2022/04/14 01:52:45;;;;;;;4.20;0.90;;;21.00;52.70;;;;;;5067576;28;20044;-55
2022/04/14 01:55:13;;;;;;;2.08;0.43;;;21.00;52.60;;;;;;5066326;28;20056;-55
2022/04/14 01:57:40;;;;;;;2.13;0.70;;;21.00;52.60;;;;;;5047454;28;20060;-52
2022/04/14 02:00:10;;;;;;;2.35;0.52;;;21.00;52.60;;;;;;5066488;28;20064;-54
2022/04/14 02:02:39;;;;;;;5.35;0.50;;;21.00;52.60;;;;;;5066663;28;20037;-53
2022/04/14 02:05:07;;;;;;;4.68;0.40;;;21.00;52.60;;;;;;5068154;28;20044;-51
2022/04/14 02:07:34;;;;;;;3.50;0.40;;;21.00;52.60;;;;;;5066702;28;20128;-54
2022/04/14 02:10:01;;;;;;;2.47;0.40;;;21.00;52.60;;;;;;5063907;28;20091;-52
2022/04/14 02:12:29;;;;;;;1.13;0.47;;;21.00;52.60;;;;;;5066225;28;20040;-57
2022/04/14 02:14:56;;;;;;;3.50;0.60;;;21.00;52.60;;;;;;5066431;28;20565;-56
2022/04/14 02:17:24;;;;;;;1.00;0.38;;;21.00;52.60;;;;;;5066556;28;20047;-53
2022/04/14 02:19:51;;;;;;;1.75;0.20;;;21.00;52.50;;;;;;5067613;28;20060;-54
2022/04/14 02:22:18;;;;;;;6.00;1.15;;;21.00;52.50;;;;;;5066656;28;20068;-57
2022/04/14 02:24:45;;;;;;;3.08;1.48;;;21.00;52.40;;;;;;5066010;28;20033;-55
2022/04/14 02:27:12;;;;;;;2.88;0.47;;;21.00;52.40;;;;;;5048398;28;20064;-52
2022/04/14 02:29:40;;;;;;;2.33;0.50;;;21.00;52.40;;;;;;5065979;28;20060;-56
2022/04/14 02:32:08;;;;;;;1.20;0.35;;;21.00;52.40;;;;;;5068149;28;20113;-55
2022/04/14 02:34:36;;;;;;;0.57;0.40;;;21.00;52.40;;;;;;5066144;28;20509;-53
2022/04/14 02:37:03;;;;;;;0.88;0.20;;;21.00;52.40;;;;;;5066517;28;20120;-56
2022/04/14 02:39:31;;;;;;;1.00;0.65;;;21.00;52.50;;;;;;5063429;28;20453;-55
2022/04/14 02:41:58;;;;;;;1.52;0.52;;;21.00;52.40;;;;;;5063948;28;20119;-53
2022/04/14 02:44:25;;;;;;;1.52;0.73;;;21.00;52.40;;;;;;5066476;28;20128;-55
2022/04/14 02:46:52;;;;;;;4.20;1.15;;;21.00;52.40;;;;;;5066916;28;20568;-52
2022/04/14 02:49:19;;;;;;;0.38;0.20;;;21.10;52.50;;;;;;5064243;28;20123;-54
2022/04/14 02:51:47;;;;;;;4.88;0.82;;;21.10;52.40;;;;;;5063846;28;20052;-52
2022/04/14 02:54:14;;;;;;;1.60;0.40;;;21.10;52.30;;;;;;5065493;28;20047;-56
2022/04/14 02:56:41;;;;;;;1.92;0.32;;;21.10;52.30;;;;;;5065651;28;20481;-56
2022/04/14 02:59:08;;;;;;;1.92;0.50;;;21.10;52.30;;;;;;5066658;28;20045;-56
2022/04/14 03:01:35;;;;;;;1.13;0.88;;;21.10;52.30;;;;;;5065354;28;20529;-56
2022/04/14 03:04:02;;;;;;;1.13;0.50;;;21.10;52.20;;;;;;5065846;28;20067;-55
2022/04/14 03:06:29;;;;;;;3.35;0.60;;;21.10;52.10;;;;;;5065795;28;20042;-55
2022/04/14 03:08:57;;;;;;;1.33;0.63;;;21.10;52.10;;;;;;5065556;28;20494;-54
2022/04/14 03:11:24;;;;;;;1.42;0.40;;;21.10;52.10;;;;;;5066570;28;20060;-54
2022/04/14 03:13:51;;;;;;;3.03;0.73;;;21.00;52.00;;;;;;5067008;28;20049;-52
2022/04/14 03:16:18;;;;;;;2.42;0.30;;;21.10;52.20;;;;;;5065219;28;20131;-55
2022/04/14 03:18:45;;;;;;;2.75;0.45;;;21.00;52.10;;;;;;5065730;28;20036;-55
2022/04/14 03:21:12;;;;;;;2.75;0.40;;;21.00;52.20;;;;;;5065800;28;20036;-54
2022/04/14 03:23:40;;;;;;;2.05;0.50;;;21.10;52.20;;;;;;5065476;28;20558;-53
2022/04/14 03:26:09;;;;;;;1.40;0.40;;;21.00;52.20;;;;;;5067159;28;20045;-55
2022/04/14 03:28:36;;;;;;;1.98;0.30;;;21.10;52.20;;;;;;5065615;28;20584;-53
2022/04/14 03:31:04;;;;;;;2.30;0.50;;;21.10;52.20;;;;;;5065552;28;20036;-52
2022/04/14 03:33:31;;;;;;;1.75;1.15;;;21.10;52.10;;;;;;5064321;28;20044;-52
2022/04/14 03:35:59;;;;;;;0.68;0.55;;;21.10;52.10;;;;;;5050771;28;20113;-50
2022/04/14 03:38:26;;;;;;;9.45;0.57;;;21.10;52.00;;;;;;5065882;28;20045;-51
2022/04/14 03:40:53;;;;;;;2.05;0.47;;;21.10;52.10;;;;;;5063990;28;20557;-53
2022/04/14 03:43:21;;;;;;;2.42;0.20;;;21.10;52.10;;;;;;5063244;28;20121;-57
2022/04/14 03:45:48;;;;;;;4.22;0.80;;;21.10;52.00;;;;;;5062788;28;20044;-55
2022/04/14 03:48:15;;;;;;;1.02;0.35;;;21.00;52.00;;;;;;5065518;28;20032;-55
2022/04/14 03:50:42;;;;;;;0.52;0.30;;;21.10;52.10;;;;;;5065362;28;20044;-56
2022/04/14 03:53:10;;;;;;;5.60;0.68;;;21.10;52.10;;;;;;5067290;28;20033;-54
2022/04/14 03:55:37;;;;;;;1.13;0.32;;;21.10;52.20;;;;;;5065446;28;20105;-55
2022/04/14 03:58:04;;;;;;;1.48;0.77;;;21.10;52.20;;;;;;5063904;28;20047;-55
2022/04/14 04:00:33;;;;;;;2.28;0.50;;;21.10;52.20;;;;;;5063002;28;20049;-54
2022/04/14 04:03:00;;;;;;;1.35;0.40;;;21.10;52.10;;;;;;5065537;28;20040;-57
2022/04/14 04:05:27;;;;;;;4.18;0.80;;;21.10;52.20;;;;;;5065207;28;20051;-54
2022/04/14 04:07:54;;;;;;;7.53;0.88;;;21.10;52.20;;;;;;5065364;28;20056;-54
2022/04/14 04:10:21;;;;;;;5.15;0.47;;;21.10;52.10;;;;;;5065494;28;20159;-52
2022/04/14 04:12:48;;;;;;;2.33;0.20;;;21.00;52.10;;;;;;5068403;28;20222;-53
2022/04/14 04:15:15;;;;;;;2.72;0.60;;;21.10;52.20;;;;;;5065737;28;20566;-55
2022/04/14 04:17:45;;;;;;;6.43;0.47;;;21.10;52.30;;;;;;5065930;28;20877;-51
2022/04/14 04:20:12;;;;;;;0.43;0.43;;;21.10;52.30;;;;;;5069633;28;20532;-52
2022/04/14 04:22:40;;;;;;;3.22;0.73;;;21.00;52.20;;;;;;5068066;28;20033;-53
2022/04/14 04:25:08;;;;;;;4.90;0.60;;;21.00;52.10;;;;;;5067309;28;20516;-54
2022/04/14 04:27:36;;;;;;;3.05;0.20;;;21.00;52.10;;;;;;5064108;28;20040;-54
2022/04/14 04:30:04;;;;;;;2.95;1.17;;;20.90;52.20;;;;;;5065486;28;20155;-55
2022/04/14 04:32:33;;;;;;;2.38;0.40;;;20.80;52.30;;;;;;5067892;28;20050;-52
2022/04/14 04:35:02;;;;;;;4.53;0.90;;;20.80;52.30;;;;;;5067820;28;20041;-54
2022/04/14 04:37:29;;;;;;;2.15;0.30;;;20.80;52.30;;;;;;5050798;28;20033;-55
2022/04/14 04:39:56;;;;;;;2.25;0.45;;;20.90;52.40;;;;;;5074748;28;20128;-53
2022/04/14 04:42:24;;;;;;;4.10;0.60;;;20.80;52.50;;;;;;5067251;28;20054;-54
2022/04/14 04:44:52;;;;;;;2.72;0.63;;;20.90;52.50;;;;;;5067285;28;20036;-55
2022/04/14 04:47:21;;;;;;;4.53;0.88;;;20.90;52.50;;;;;;5069187;28;20037;-51
2022/04/14 04:49:48;;;;;;;2.60;0.40;;;20.90;52.50;;;;;;5068781;28;20050;-56
2022/04/14 04:52:17;;;;;;;5.15;0.65;;;20.80;52.40;;;;;;5067475;28;20524;-52
2022/04/14 04:54:44;;;;;;;0.65;0.63;;;20.90;52.40;;;;;;5064033;28;20086;-52
2022/04/14 04:57:12;;;;;;;5.57;0.88;;;20.90;52.50;;;;;;5066620;28;20052;-50
2022/04/14 04:59:39;;;;;;;4.72;0.63;;;20.80;52.40;;;;;;5066080;28;20049;-52
2022/04/14 05:02:06;;;;;;;2.15;0.43;;;20.90;52.40;;;;;;5049941;28;20040;-50
2022/04/14 05:04:33;;;;;;;5.65;0.90;;;20.90;52.40;;;;;;5064627;28;20891;-51
2022/04/14 05:07:00;;;;;;;2.47;1.10;;;20.90;52.40;;;;;;5069063;28;20033;-51
2022/04/14 05:09:29;;;;;;;1.98;0.60;;;20.90;52.40;;;;;;5066990;28;20037;-54
2022/04/14 05:11:56;;;;;;;2.72;1.17;;;20.90;52.30;;;;;;5067296;28;20035;-55
2022/04/14 05:14:23;;;;;;;1.50;0.60;;;20.90;52.30;;;;;;5067483;28;20032;-55
2022/04/14 05:16:50;;;;;;;2.95;0.40;;;20.90;52.20;;;;;;5067628;28;20036;-56
2022/04/14 05:19:17;;;;;;;3.25;0.88;;;21.00;52.20;;;;;;5066831;28;20143;-58
2022/04/14 05:21:45;;;;;;;1.15;0.90;;;20.90;52.10;;;;;;5067128;28;20473;-51
2022/04/14 05:24:12;;;;;;;3.47;0.60;;;20.90;52.10;;;;;;5066965;28;20436;-55
2022/04/14 05:26:40;;;;;;;1.02;0.93;;;20.90;52.10;;;;;;5068281;28;20047;-57
2022/04/14 05:29:07;;;;;;;1.95;1.27;;;20.90;52.10;;;;;;5068517;28;20044;-57
2022/04/14 05:31:34;;;;;;;6.20;0.60;;;20.90;52.10;;;;;;5065987;28;20047;-53
2022/04/14 05:34:01;;;;;;;5.10;1.15;;;20.90;52.00;;;;;;5066601;28;20495;-52
2022/04/14 05:36:28;;;;;;;2.00;0.47;;;20.90;52.50;;;;;;5067410;28;20048;-52
2022/04/14 05:38:55;;;;;;;5.00;0.82;;;20.90;51.90;;;;;;5066970;28;20035;-55
2022/04/14 05:41:22;;;;;;;0.93;0.40;;;20.80;51.80;;;;;;5049153;28;20068;-55
2022/04/14 05:43:51;;;;;;;2.38;1.00;;;20.90;51.90;;;;;;5067234;28;20037;-55
2022/04/14 05:46:18;;;;;;;2.35;0.98;;;20.80;51.80;;;;;;5063711;28;20119;-52
2022/04/14 05:48:45;;;;;;;3.22;0.55;;;20.80;51.80;;;;;;5066008;28;20032;-56
2022/04/14 05:51:12;;;;;;;1.48;0.88;;;20.80;51.80;;;;;;5066169;28;20119;-54
2022/04/14 05:53:39;;;;;;;5.00;0.82;;;20.80;51.80;;;;;;5066595;28;20342;-54
2022/04/14 05:56:06;;;;;;;4.15;1.27;;;20.80;51.80;;;;;;5068099;28;20084;-53
2022/04/14 05:58:33;;;;;;;2.47;0.60;;;20.80;51.90;;;;;;5056452;28;20114;-54
2022/04/14 06:01:02;;;;;;;2.13;1.00;;;20.80;52.00;;;;;;5060103;28;20114;-57
2022/04/14 06:03:29;;;;;;;3.80;0.77;;;20.80;52.10;;;;;;5065841;28;20058;-55
2022/04/14 06:05:56;;;;;;;3.08;1.42;;;20.80;52.20;;;;;;5065871;28;20036;-54
2022/04/14 06:08:24;;;;;;;4.10;1.13;;;20.80;52.20;;;;;;5066713;28;20821;-56
2022/04/14 06:10:51;;;;;;;2.92;1.08;;;20.80;52.20;;;;;;5067425;28;20109;-53
2022/04/14 06:13:18;;;;;;;5.68;1.02;;;20.80;52.30;;;;;;5065357;28;20039;-56
2022/04/14 06:15:45;;;;;;;3.60;0.70;;;20.80;52.30;;;;;;5063672;28;20119;-51
2022/04/14 06:18:13;;;;;;;8.65;1.08;;;20.90;53.10;;;;;;5065826;28;20035;-51
2022/04/14 06:20:41;;;;;;;0.77;0.57;;;21.10;53.30;;;;;;5066118;28;20045;-53
2022/04/14 06:23:10;;;;;;;9.38;0.75;;;21.30;53.10;;;;;;5068067;28;20040;-52
2022/04/14 06:25:37;;;;;;;9.70;1.58;;;21.50;52.90;;;;;;5064188;28;20032;-53
2022/04/14 06:28:07;;;;;;;7.63;1.08;;;21.70;52.70;;;;;;5061974;28;20045;-54
2022/04/14 06:30:34;;;;;;;14.70;1.33;;;21.90;52.50;;;;;;5063273;28;20231;-52
2022/04/14 06:33:03;;;;;;;12.25;0.88;;;22.10;52.10;;;;;;5065729;28;20036;-54
2022/04/14 06:35:32;;;;;;;9.63;1.40;;;22.30;52.00;;;;;;5065437;28;20416;-53
2022/04/14 06:37:59;;;;;;;11.88;0.95;;;22.40;51.70;;;;;;5066667;28;20480;-54
2022/04/14 06:40:27;;;;;;;9.07;1.05;;;22.50;51.40;;;;;;5065704;28;20049;-50
2022/04/14 06:42:54;;;;;;;9.73;1.40;;;22.70;51.20;;;;;;5065507;28;20040;-55
2022/04/14 06:45:21;;;;;;;15.00;0.85;;;22.70;50.90;;;;;;5065481;28;20060;-52
2022/04/14 06:47:49;;;;;;;6.90;1.45;;;22.80;50.70;;;;;;5047414;28;20025;-55
2022/04/14 06:50:16;;;;;;;11.90;0.85;;;22.80;50.50;;;;;;5063055;28;20138;-56
2022/04/14 06:52:45;;;;;;;10.27;1.27;;;22.90;50.40;;;;;;5065811;28;20599;-56
2022/04/14 06:55:12;;;;;;;8.57;1.58;;;22.90;50.20;;;;;;5065561;28;20090;-54
2022/04/14 06:57:39;;;;;;;10.15;1.60;;;22.90;50.10;;;;;;5065347;28;20036;-52
2022/04/14 07:00:08;;;;;;;3.67;1.00;;;23.00;50.00;;;;;;5065413;28;20450;-56
2022/04/14 07:02:35;;;;;;;4.65;1.10;;;23.00;49.90;;;;;;5065356;28;20041;-52
2022/04/14 07:05:02;;;;;;;4.45;1.02;;;23.00;49.80;;;;;;5067314;28;20048;-53
2022/04/14 07:07:29;;;;;;;9.43;2.00;;;23.10;49.70;;;;;;5063101;28;20045;-56
2022/04/14 07:09:57;;;;;;;7.80;1.52;;;23.10;49.60;;;;;;5062509;28;20127;-53
2022/04/14 07:12:25;;;;;;;3.35;1.35;;;23.10;49.60;;;;;;5065285;28;20522;-55
2022/04/14 07:14:52;;;;;;;6.82;1.88;;;23.10;49.50;;;;;;5065740;28;20037;-54
2022/04/14 07:17:20;;;;;;;14.55;1.85;;;23.10;49.40;;;;;;5067499;28;20570;-56
2022/04/14 07:19:48;;;;;;;7.45;2.15;;;23.10;49.40;;;;;;5068694;28;20059;-55
2022/04/14 07:22:18;;;;;;;7.85;1.08;;;23.20;49.30;;;;;;5065586;28;20040;-52
2022/04/14 07:24:47;;;;;;;8.02;1.67;;;23.20;49.20;;;;;;5062021;28;20048;-53
2022/04/14 07:27:17;;;;;;;5.68;2.20;;;23.20;49.10;;;;;;5065457;28;20594;-50
2022/04/14 07:29:45;;;;;;;6.05;1.08;;;23.20;49.10;;;;;;5064854;28;20110;-56
2022/04/14 07:32:13;;;;;;;5.10;1.23;;;23.30;49.10;;;;;;5067058;28;20110;-53
2022/04/14 07:34:40;;;;;;;3.67;1.35;;;23.20;49.00;;;;;;5065438;28;20041;-55
2022/04/14 07:37:07;;;;;;;4.47;1.40;;;23.30;49.00;;;;;;5065345;28;20043;-54
2022/04/14 07:39:34;;;;;;;5.35;2.10;;;23.30;48.90;;;;;;5063790;28;20040;-55
2022/04/14 07:42:01;;;;;;;4.68;1.48;;;23.30;48.90;;;;;;5069306;28;20040;-56
2022/04/14 07:44:30;;;;;;;6.45;1.58;;;23.30;48.80;;;;;;5069265;28;20116;-56
2022/04/14 07:46:57;;;;;;;7.55;1.40;;;23.30;48.80;;;;;;5070788;28;20127;-55
2022/04/14 07:49:24;;;;;;;5.03;1.48;;;23.30;48.90;;;;;;5069075;28;20479;-54
2022/04/14 07:51:51;;;;;;;4.32;1.75;;;23.30;48.90;;;;;;5069281;28;20047;-51
2022/04/14 07:54:18;;;;;;;4.18;1.50;;;23.30;48.80;;;;;;5067583;28;20456;-52
2022/04/14 07:56:46;;;;;;;7.15;2.42;;;23.40;48.80;;;;;;5069357;28;20033;-54
2022/04/14 07:59:13;;;;;;;4.18;1.13;;;23.40;48.70;;;;;;5070484;28;20091;-51
2022/04/14 08:01:42;;;;;;;4.80;2.10;;;23.40;48.70;;;;;;5068375;28;20032;-54
2022/04/14 08:04:09;;;;;;;6.32;1.52;;;23.40;48.60;;;;;;5068924;28;20064;-53
2022/04/14 08:06:36;;;;;;;7.70;1.55;;;23.40;48.60;;;;;;5068617;28;20078;-56
2022/04/14 08:09:06;;;;;;;3.50;1.58;;;23.50;48.60;;;;;;5069632;28;20060;-53
2022/04/14 08:11:34;;;;;;;3.20;1.33;;;23.50;48.60;;;;;;5069624;28;20040;-53
2022/04/14 08:14:01;;;;;;;3.42;1.70;;;23.50;48.60;;;;;;5070633;28;20040;-54
2022/04/14 08:16:28;;;;;;;3.38;1.45;;;23.50;48.50;;;;;;5068442;28;20075;-55
2022/04/14 08:18:57;;;;;;;5.93;1.33;;;23.50;48.50;;;;;;5068726;28;20086;-56
2022/04/14 08:21:24;;;;;;;4.53;1.02;;;23.50;48.40;;;;;;5068673;28;20114;-55
2022/04/14 08:23:52;;;;;;;1.80;1.00;;;23.60;48.40;;;;;;5065878;28;20060;-56
2022/04/14 08:26:19;;;;;;;6.10;1.92;;;23.60;48.40;;;;;;5052676;28;20450;-57
2022/04/14 08:28:47;;;;;;;2.22;0.93;;;23.60;48.30;;;;;;5068883;28;20489;-54
2022/04/14 08:31:15;;;;;;;6.00;1.40;;;23.60;48.30;;;;;;5066369;28;20807;-54
2022/04/14 08:33:44;;;;;;;2.70;1.05;;;23.70;48.30;;;;;;5068328;28;20040;-55
2022/04/14 08:36:15;;;;;;;1.95;1.33;;;23.70;48.30;;;;;;5068694;28;20529;-55
2022/04/14 08:38:44;;;;;;;6.07;1.17;;;23.70;48.20;;;;;;5068152;28;20094;-52
2022/04/14 08:41:13;;;;;;;6.22;1.55;;;23.70;48.20;;;;;;5051639;28;20055;-54
2022/04/14 08:43:49;;;;;;;1.42;0.68;;;23.70;48.10;;;;;;5067885;28;20040;-54
2022/04/14 08:46:18;;;;;;;5.53;2.30;;;23.70;48.10;;;;;;5068309;28;20037;-54
2022/04/14 08:48:50;;;;;;;2.15;1.15;;;23.70;48.10;;;;;;5067981;28;20584;-55
2022/04/14 08:51:20;;;;;;;2.33;0.98;;;23.70;48.00;;;;;;5067521;28;20076;-55
2022/04/14 08:53:49;;;;;;;2.53;1.33;;;23.80;48.00;;;;;;5067823;28;20140;-55
2022/04/14 08:56:17;;;;;;;3.88;1.25;;;23.80;47.90;;;;;;5065143;28;20497;-55
2022/04/14 08:58:44;;;;;;;2.25;0.82;;;23.80;47.90;;;;;;5067644;28;20063;-56
2022/04/14 09:01:13;;;;;;;1.20;0.85;;;23.80;47.80;;;;;;5066216;28;20389;-54
2022/04/14 09:03:41;;;;;;;4.55;1.63;;;23.80;47.80;;;;;;5067556;28;20029;-54
2022/04/14 09:06:08;;;;;;;2.80;1.20;;;23.80;47.80;;;;;;5068462;28;20043;-55
2022/04/14 09:08:36;;;;;;;4.38;1.20;;;23.90;47.70;;;;;;5067874;28;20086;-56
2022/04/14 09:11:03;;;;;;;0.90;0.90;;;23.90;47.70;;;;;;5031684;28;20055;-56
2022/04/14 09:13:31;;;;;;;3.08;0.68;;;23.90;47.70;;;;;;5065627;28;20068;-57
2022/04/14 09:15:58;;;;;;;2.90;1.20;;;23.90;47.60;;;;;;5073977;28;20496;-57
2022/04/14 09:18:26;;;;;;;2.70;1.02;;;23.90;47.50;;;;;;5066353;28;20485;-56
2022/04/14 09:21:03;;;;;;;4.47;1.30;;;24.00;47.50;;;;;;5065706;28;20062;-55
2022/04/14 09:23:31;;;;;;;2.63;0.95;;;24.00;47.40;;;;;;5067124;28;20040;-55
2022/04/14 09:26:14;;;;;;;3.63;1.02;;;24.00;47.40;;;;;;5066474;28;20090;-52
2022/04/14 09:28:42;;;;;;;1.67;1.13;;;24.00;47.30;;;;;;5063821;28;20063;-56
2022/04/14 09:31:11;;;;;;;2.15;0.98;;;24.00;47.90;;;;;;5067370;28;20070;-55
2022/04/14 09:33:46;;;;;;;2.30;0.35;;;24.00;47.20;;;;;;5067551;28;20055;-51
2022/04/14 09:36:16;;;;;;;1.98;0.68;;;24.10;47.20;;;;;;5067085;28;20169;-53
2022/04/14 09:38:56;;;;;;;1.88;0.88;;;24.10;47.20;;;;;;5066997;28;20036;-57
2022/04/14 09:41:35;;;;;;;1.23;0.50;;;24.10;47.10;;;;;;5064692;28;20062;-57
2022/04/14 09:44:05;;;;;;;1.00;0.70;;;24.10;47.10;;;;;;5068875;28;20102;-56
2022/04/14 09:46:32;;;;;;;1.42;0.40;;;24.10;47.00;;;;;;5066353;28;20147;-54
2022/04/14 09:49:07;;;;;;;1.88;0.52;;;24.10;47.00;;;;;;5067000;28;20517;-55
2022/04/14 09:51:35;;;;;;;3.85;1.27;;;24.20;47.00;;;;;;5066797;28;20044;-56
2022/04/14 09:54:13;;;;;;;5.30;0.88;;;24.20;46.90;;;;;;5066011;28;20115;-56
2022/04/14 09:56:44;;;;;;;2.10;0.40;;;24.20;46.80;;;;;;5066779;28;20146;-56
2022/04/14 09:59:13;;;;;;;1.10;1.02;;;24.20;46.80;;;;;;5068587;28;20059;-56
2022/04/14 10:01:40;;;;;;;5.60;0.52;;;24.20;46.80;;;;;;5066774;28;20029;-53
2022/04/14 10:04:10;;;;;;;2.65;0.30;;;24.20;46.70;;;;;;5066723;28;20723;-54
2022/04/14 10:06:38;;;;;;;2.25;0.50;;;24.20;46.70;;;;;;5063960;28;20040;-56
2022/04/14 10:09:06;;;;;;;1.05;0.50;;;24.30;46.60;;;;;;5066176;28;20037;-56
2022/04/14 10:11:35;;;;;;;0.88;0.50;;;24.30;46.60;;;;;;5067086;28;20052;-54
2022/04/14 10:14:13;;;;;;;4.13;0.40;;;24.30;46.50;;;;;;5068304;28;20056;-54
2022/04/14 10:16:41;;;;;;;1.02;0.82;;;24.30;46.50;;;;;;5038143;28;20526;-57
2022/04/14 10:19:09;;;;;;;1.23;0.75;;;24.30;46.40;;;;;;5061622;28;20075;-51
2022/04/14 10:21:37;;;;;;;5.45;0.93;;;24.40;46.40;;;;;;5047749;28;20045;-55
2022/04/14 10:24:06;;;;;;;0.60;0.43;;;24.40;46.40;;;;;;5066011;28;20078;-52
2022/04/14 10:26:34;;;;;;;1.02;0.40;;;24.40;46.30;;;;;;5066720;28;20052;-55
2022/04/14 10:29:03;;;;;;;0.95;0.32;;;24.40;46.30;;;;;;5065870;28;20052;-55
2022/04/14 10:31:34;;;;;;;3.50;0.30;;;24.40;46.20;;;;;;5048545;28;20040;-56
2022/04/14 10:34:04;;;;;;;0.85;0.77;;;24.40;46.20;;;;;;5066297;28;20075;-53
2022/04/14 10:36:33;;;;;;;0.77;0.28;;;24.40;46.10;;;;;;5063817;28;20044;-53
2022/04/14 10:39:01;;;;;;;1.17;0.50;;;24.50;46.10;;;;;;5066380;28;20040;-55
2022/04/14 10:41:32;;;;;;;0.85;0.28;;;24.50;46.10;;;;;;5065951;28;20040;-56
2022/04/14 10:44:03;;;;;;;1.75;0.20;;;24.50;46.10;;;;;;5065403;28;20041;-56
2022/04/14 10:46:41;;;;;;;1.35;0.50;;;24.50;46.00;;;;;;5066301;28;20037;-54
2022/04/14 10:49:13;;;;;;;1.40;0.25;;;24.60;46.00;;;;;;5066099;28;20124;-57
2022/04/14 10:51:40;;;;;;;1.27;0.20;;;24.60;45.90;;;;;;5066044;28;20103;-57
2022/04/14 10:54:08;;;;;;;1.42;0.30;;;24.60;45.90;;;;;;5066279;28;20566;-53
2022/04/14 10:56:47;;;;;;;1.40;0.73;;;24.60;45.90;;;;;;5048114;28;20568;-54
2022/04/14 10:59:16;;;;;;;1.35;0.40;;;24.60;45.80;;;;;;5067587;28;20102;-53
2022/04/14 11:01:57;;;;;;;0.68;0.20;;;24.60;45.80;;;;;;5065818;28;20036;-56
2022/04/14 11:04:36;;;;;;;0.68;0.30;;;24.70;45.70;;;;;;5065646;28;20505;-50
2022/04/14 11:07:09;;;;;;;3.20;0.30;;;24.60;45.70;;;;;;5066074;28;20036;-56
2022/04/14 11:09:52;;;;;;;0.35;0.20;;;24.70;45.70;;;;;;5065689;28;20098;-56
2022/04/14 11:12:21;;;;;;;0.80;0.13;;;24.70;45.60;;;;;;5066228;28;20056;-54
2022/04/14 11:14:56;;;;;;;2.60;0.10;;;24.80;45.70;;;;;;5065063;28;20044;-54
2022/04/14 11:17:57;;;;;;;1.20;0.25;;;24.80;45.60;;;;;;5067532;28;20049;-57
2022/04/14 11:20:58;;;;;;;0.60;0.20;;;24.80;45.60;;;;;;5066822;28;20040;-56
2022/04/14 11:23:28;;;;;;;1.48;0.10;;;24.80;45.50;;;;;;5069497;28;20048;-53
2022/04/14 11:26:07;;;;;;;1.27;0.40;;;24.80;45.60;;;;;;5070965;28;20041;-56
2022/04/14 11:28:36;;;;;;;0.73;0.20;;;24.90;45.50;;;;;;5069608;28;20049;-55
2022/04/14 11:31:22;;;;;;;4.18;0.25;;;24.90;45.50;;;;;;5069919;28;20040;-56
2022/04/14 11:33:51;;;;;;;0.20;0.20;;;24.90;45.40;;;;;;5068598;28;20032;-55
2022/04/14 11:36:21;;;;;;;0.30;0.17;;;24.90;45.30;;;;;;5066538;28;20040;-56
2022/04/14 11:38:59;;;;;;;0.22;0.20;;;25.00;45.30;;;;;;5069574;28;20079;-56
2022/04/14 11:41:39;;;;;;;1.40;0.20;;;25.00;45.20;;;;;;5067073;28;20052;-57
2022/04/14 11:44:08;;;;;;;0.90;0.20;;;25.10;45.20;;;;;;5071004;28;20544;-55
2022/04/14 11:46:38;;;;;;;0.73;0.10;;;25.10;45.10;;;;;;5069583;28;20128;-53
2022/04/14 11:49:06;;;;;;;0.63;0.20;;;25.10;45.00;;;;;;5069565;28;20045;-56
2022/04/14 11:51:41;;;;;;;1.17;0.28;;;25.20;45.00;;;;;;5066917;28;20037;-53
2022/04/14 11:54:09;;;;;;;1.13;0.10;;;25.20;44.90;;;;;;5066398;28;20129;-56
2022/04/14 11:56:37;;;;;;;0.82;0.20;;;25.20;44.90;;;;;;5068569;28;20048;-55
2022/04/14 11:59:08;;;;;;;0.93;0.10;;;25.20;44.80;;;;;;5070667;28;20044;-56
2022/04/14 12:01:47;;;;;;;1.05;0.10;;;25.20;44.80;;;;;;5068966;28;20067;-57
2022/04/14 12:04:14;;;;;;;0.25;0.20;;;25.30;44.80;;;;;;5068753;28;20757;-55
2022/04/14 12:06:51;;;;;;;1.70;0.10;;;25.30;44.70;;;;;;5069203;28;20420;-54
2022/04/14 12:09:19;;;;;;;5.75;0.10;;;25.40;44.70;;;;;;5069148;28;20066;-56
2022/04/14 12:11:47;;;;;;;0.20;0.10;;;25.40;44.70;;;;;;5068863;28;20040;-55
2022/04/14 12:14:16;;;;;;;0.32;0.10;;;25.40;44.60;;;;;;5070516;28;20044;-54
2022/04/14 12:16:50;;;;;;;0.20;0.10;;;25.50;44.60;;;;;;5067957;28;20127;-52
2022/04/14 12:19:18;;;;;;;1.98;0.20;;;25.60;44.60;;;;;;5068260;28;20041;-55
2022/04/14 12:21:59;;;;;;;0.10;0.10;;;25.60;44.50;;;;;;5068799;28;20041;-55
2022/04/14 12:24:27;;;;;;;0.10;0.10;;;25.70;44.40;;;;;;5068582;28;20055;-55
2022/04/14 12:26:54;;;;;;;0.73;0.10;;;25.70;44.40;;;;;;5067551;28;20040;-55
2022/04/14 12:29:22;;;;;;;0.40;0.40;;;25.70;44.30;;;;;;5069253;28;20045;-56
2022/04/14 12:31:49;;;;;;;0.10;0.10;;;25.70;44.10;;;;;;5069781;28;20416;-56
2022/04/14 12:34:16;;;;;;;0.20;0.10;;;25.80;44.10;;;;;;5067966;28;20048;-55
2022/04/14 12:36:43;;;;;;;1.08;0.10;;;25.80;44.10;;;;;;5067766;28;20052;-57
2022/04/14 12:39:20;;;;;;;0.30;0.10;;;25.90;44.00;;;;;;5068605;28;20115;-56
2022/04/14 12:41:49;;;;;;;0.98;0.10;;;26.00;44.00;;;;;;5068202;28;20044;-53
2022/04/14 12:44:20;;;;;;;0.57;0.10;;;26.00;43.90;;;;;;5070005;28;20078;-54
2022/04/14 12:46:50;;;;;;;0.52;0.10;;;26.10;43.80;;;;;;5067370;28;20129;-56
2022/04/14 12:49:21;;;;;;;0.30;0.10;;;26.10;43.80;;;;;;5068087;28;20036;-57
2022/04/14 12:51:55;;;;;;;0.10;0.10;;;26.20;43.70;;;;;;5065959;28;20048;-54
2022/04/14 12:54:24;;;;;;;0.90;0.10;;;26.20;43.60;;;;;;5068524;28;20485;-57